Wahoo, NE

4:57 AM CDT on April 24, 2017 (GMT -0500)
Wahoo Municipal

Weather History for KAHQ - December, 2013

Change the Weather History Date:

Wednesday, December 4, 2013

  Actual Average Record
Temperature  
Mean Temperature 26 °F -  
Max Temperature 35 °F 40 °F 60 °F (1979)
Min Temperature 18 °F 18 °F 2 °F (1972)
Degree Days  
Heating Degree Days 38    
Moisture  
Dew Point 18 °F    
Average Humidity 80    
Maximum Humidity 93    
Minimum Humidity 64    
Precipitation  
Precipitation 0.00 in - - ()
Sea Level Pressure  
Sea Level Pressure 29.78 in    
Wind  
Wind Speed 18 mph (NW)    
Max Wind Speed 25 mph    
Max Gust Speed 32 mph    
Visibility 8 miles    
Events      
Averages and records for this station are not official NWS values.
T = Trace of Precipitation, MM = Missing Value Source: NWS Daily Summary

Daily Weather History Graph

Daily Weather History Graph

Search for Another Location

Airport or City:

Trip Planner

Search our weather history database for the weather conditions in past years. The results will help you decide how hot, cold, wet, or windy it might be!

Date:

Astronomy

Dec. 04, 2013 Rise Set
Actual Time 7:35 AM CST 4:57 PM CST
Civil Twilight 7:04 AM CST 5:28 PM CST
Nautical Twilight 6:30 AM CST 6:02 PM CST
Astronomical Twilight 5:57 AM CST 6:36 PM CST
Moon 9:04 AM CST (12/4) 7:09 PM CST (12/4)
Length of Visible Light 10h 23m
Length of Day
9h 21m
Waxing Crescent, 4% of the Moon is Illuminated
Dec 4
Waxing Crescent
Dec 9
First Quarter
Dec 17
Full
Dec 25
Last Quarter
Jan 1
New

Hourly Weather History & Observations

Time (CST) Temp. Windchill Dew Point Humidity Pressure Visibility Wind Dir Wind Speed Gust Speed Precip Events Conditions
12:15 AM 35.2 °F 26.6 °F 32.0 °F 88% 29.67 in 5.0 mi North 12.7 mph - N/A   Overcast
12:35 AM 34.7 °F 25.5 °F 31.8 °F 89% 29.66 in 4.0 mi North 13.8 mph - N/A   Overcast
12:55 AM 33.8 °F 23.9 °F 31.6 °F 92% 29.68 in 3.0 mi NNW 15.0 mph - N/A   Overcast
1:15 AM 32.0 °F 20.8 °F 30.2 °F 93% 29.67 in 2.5 mi NNW 17.3 mph 20.7 mph N/A   Overcast
1:35 AM 31.6 °F 19.0 °F 29.8 °F 93% 29.67 in 2.5 mi NNW 21.9 mph 26.5 mph N/A   Overcast
1:55 AM 31.1 °F 19.3 °F 29.3 °F 93% 29.68 in 2.5 mi NNW 18.4 mph 25.3 mph N/A   Overcast
2:15 AM 30.2 °F 17.8 °F 28.4 °F 93% 29.67 in 3.0 mi NNW 19.6 mph 24.2 mph N/A   Overcast
2:35 AM 29.7 °F 16.4 °F 27.5 °F 92% 29.67 in 4.0 mi NNW 21.9 mph - N/A   Overcast
2:55 AM 29.1 °F 16.0 °F 27.1 °F 92% 29.66 in 5.0 mi NNW 20.7 mph 24.2 mph N/A   Overcast
3:15 AM 28.4 °F 14.7 °F 26.6 °F 93% 29.66 in 4.0 mi NNW 21.9 mph - N/A   Overcast
3:35 AM 28.2 °F 14.8 °F 26.2 °F 92% 29.66 in 3.0 mi NNW 20.7 mph - N/A   Overcast
3:55 AM 27.5 °F 14.6 °F 25.7 °F 93% 29.66 in 3.0 mi NNW 18.4 mph 24.2 mph N/A   Overcast
4:15 AM 27.1 °F 14.1 °F 25.2 °F 92% 29.67 in 3.0 mi NNW 18.4 mph 25.3 mph N/A   Overcast
4:35 AM 26.6 °F 13.1 °F 24.4 °F 92% 29.68 in 4.0 mi NNW 19.6 mph 28.8 mph N/A   Overcast
4:55 AM 26.2 °F 13.0 °F 23.7 °F 90% 29.68 in 7.0 mi NNW 18.4 mph 28.8 mph N/A   Overcast
5:15 AM 25.7 °F 11.9 °F 23.5 °F 92% 29.69 in 3.0 mi NW 19.6 mph 27.6 mph N/A   Overcast
5:35 AM 24.8 °F 9.6 °F 22.6 °F 91% 29.68 in 4.0 mi NNW 23.0 mph 28.8 mph N/A   Overcast
5:55 AM 24.8 °F 11.5 °F 22.5 °F 91% 29.67 in 4.0 mi NNW 17.3 mph 25.3 mph N/A   Overcast
6:15 AM 24.6 °F 10.1 °F 22.1 °F 90% 29.68 in 5.0 mi NNW 20.7 mph 24.2 mph N/A   Overcast
6:35 AM 24.4 °F 10.2 °F 22.1 °F 91% 29.66 in 5.0 mi NNW 19.6 mph - N/A   Overcast
6:55 AM 24.3 °F 10.4 °F 21.9 °F 91% 29.66 in 7.0 mi NNW 18.4 mph 24.2 mph N/A   Overcast
7:15 AM 24.3 °F 11.7 °F 21.9 °F 91% 29.66 in 7.0 mi NNW 15.0 mph 20.7 mph N/A   Overcast
7:35 AM 23.9 °F 9.9 °F 21.2 °F 89% 29.67 in 10.0 mi NNW 18.4 mph 23.0 mph N/A   Overcast
7:55 AM 24.3 °F 11.7 °F 21.7 °F 90% 29.67 in 10.0 mi NNW 15.0 mph 19.6 mph N/A   Overcast
8:15 AM 24.1 °F 12.0 °F 21.4 °F 89% 29.67 in 7.0 mi NW 13.8 mph - N/A   Overcast
8:35 AM 23.9 °F 10.3 °F 21.0 °F 89% 29.69 in 7.0 mi NW 17.3 mph 21.9 mph N/A   Overcast
8:55 AM 23.9 °F 9.9 °F 20.5 °F 87% 29.71 in 7.0 mi WNW 18.4 mph 27.6 mph N/A   Overcast
9:15 AM 23.4 °F 8.4 °F 19.2 °F 84% 29.72 in 10.0 mi NW 20.7 mph 25.3 mph N/A   Overcast
9:35 AM 23.0 °F 8.3 °F 18.9 °F 84% 29.72 in 7.0 mi NW 19.6 mph 25.3 mph N/A   Overcast
9:55 AM 22.6 °F 7.9 °F 18.1 °F 83% 29.72 in 7.0 mi NW 19.6 mph 28.8 mph N/A   Overcast
10:15 AM 22.6 °F 7.9 °F 18.7 °F 85% 29.73 in 7.0 mi NW 19.6 mph 27.6 mph N/A   Overcast
10:35 AM 22.6 °F 8.3 °F 18.5 °F 84% 29.73 in 10.0 mi NW 18.4 mph - N/A   Overcast
10:55 AM 22.6 °F 7.9 °F 17.8 °F 82% 29.72 in 10.0 mi NW 19.6 mph 26.5 mph N/A   Overcast
11:15 AM 22.6 °F 8.3 °F 18.1 °F 83% 29.72 in 10.0 mi WNW 18.4 mph - N/A   Overcast
11:35 AM 22.1 °F 7.2 °F 18.0 °F 84% 29.72 in 10.0 mi NW 19.6 mph 23.0 mph N/A   Overcast
11:55 AM 21.9 °F 7.3 °F 18.3 °F 86% 29.71 in 10.0 mi NW 18.4 mph 25.3 mph N/A   Overcast
12:15 PM 22.1 °F 8.0 °F 18.0 °F 84% 29.71 in 10.0 mi NW 17.3 mph 26.5 mph N/A   Overcast
12:35 PM 22.6 °F 6.8 °F 17.8 °F 82% 29.71 in 10.0 mi WNW 23.0 mph 28.8 mph N/A   Overcast
12:55 PM 22.1 °F 6.0 °F 16.9 °F 80% 29.71 in 10.0 mi NW 23.0 mph 27.6 mph N/A   Overcast
1:15 PM 22.1 °F 6.0 °F 16.7 °F 80% 29.73 in 10.0 mi WNW 23.0 mph 31.1 mph N/A   Overcast
1:35 PM 22.1 °F 6.0 °F 16.5 °F 79% 29.73 in 10.0 mi WNW 23.0 mph 32.2 mph N/A   Overcast
1:55 PM 21.7 °F 5.9 °F 15.3 °F 76% 29.73 in 10.0 mi WNW 21.9 mph 29.9 mph N/A   Overcast
2:15 PM 22.1 °F 6.4 °F 15.4 °F 76% 29.73 in 10.0 mi WNW 21.9 mph 28.8 mph N/A   Overcast
2:35 PM 22.1 °F 6.4 °F 14.9 °F 74% 29.74 in 10.0 mi NW 21.9 mph 29.9 mph N/A   Overcast
2:55 PM 22.1 °F 6.0 °F 14.5 °F 73% 29.76 in 10.0 mi WNW 23.0 mph 27.6 mph N/A   Overcast
3:15 PM 22.3 °F 6.3 °F 14.9 °F 73% 29.77 in 10.0 mi WNW 23.0 mph 27.6 mph N/A   Overcast
3:35 PM 22.1 °F 6.4 °F 14.0 °F 71% 29.78 in 10.0 mi WNW 21.9 mph 27.6 mph N/A   Overcast
3:55 PM 22.1 °F 5.7 °F 13.6 °F 70% 29.79 in 10.0 mi WNW 24.2 mph 28.8 mph N/A   Overcast
4:15 PM 22.1 °F 6.4 °F 13.1 °F 68% 29.80 in 10.0 mi NW 21.9 mph 29.9 mph N/A   Overcast
4:35 PM 21.9 °F 7.3 °F 13.3 °F 69% 29.83 in 10.0 mi WNW 18.4 mph 29.9 mph N/A   Overcast
4:55 PM 21.6 °F 6.5 °F 12.2 °F 67% 29.83 in 10.0 mi NW 19.6 mph 26.5 mph N/A   Overcast
5:15 PM 21.2 °F 4.2 °F 11.7 °F 67% 29.85 in 10.0 mi WNW 25.3 mph 31.1 mph N/A   Overcast
5:35 PM 20.1 °F 5.4 °F 11.1 °F 68% 29.86 in 10.0 mi WNW 17.3 mph 28.8 mph N/A   Mostly Cloudy
5:55 PM 19.6 °F 2.3 °F 11.1 °F 70% 29.87 in 10.0 mi WNW 24.2 mph 27.6 mph N/A   Mostly Cloudy
6:15 PM 19.0 °F 3.2 °F 10.4 °F 69% 29.89 in 10.0 mi WNW 19.6 mph 25.3 mph N/A   Scattered Clouds
6:35 PM 18.9 °F 3.3 °F 10.0 °F 69% 29.87 in 10.0 mi NW 18.4 mph 27.6 mph N/A   Scattered Clouds
6:55 PM 18.5 °F 1.6 °F 9.5 °F 68% 29.88 in 10.0 mi NW 21.9 mph 28.8 mph N/A   Clear
7:15 PM 18.5 °F 2.4 °F 9.5 °F 68% 29.89 in 10.0 mi NW 19.6 mph 25.3 mph N/A   Clear
7:35 PM 18.5 °F 2.0 °F 9.5 °F 68% 29.91 in 10.0 mi WNW 20.7 mph 26.5 mph N/A   Scattered Clouds
7:55 PM 18.5 °F 3.3 °F 9.5 °F 68% 29.93 in 10.0 mi WNW 17.3 mph - N/A   Mostly Cloudy
8:15 PM 18.5 °F 2.0 °F 9.7 °F 68% 29.91 in 10.0 mi NW 20.7 mph - N/A   Overcast
8:35 PM 18.5 °F 3.3 °F 10.0 °F 70% 29.94 in 10.0 mi NW 17.3 mph 24.2 mph N/A   Overcast
8:55 PM 18.5 °F 3.8 °F 10.0 °F 70% 29.96 in 10.0 mi WNW 16.1 mph - N/A   Overcast
9:15 PM 18.7 °F 3.1 °F 9.9 °F 69% 30.01 in 10.0 mi WNW 18.4 mph 25.3 mph N/A   Overcast
9:35 PM 19.0 °F 3.2 °F 10.0 °F 68% 30.00 in 10.0 mi WNW 19.6 mph 25.3 mph N/A   Overcast
9:55 PM 19.0 °F 4.0 °F 9.9 °F 67% 29.99 in 10.0 mi NW 17.3 mph 25.3 mph N/A   Overcast
10:15 PM 18.9 °F 2.9 °F 9.5 °F 67% 29.99 in 10.0 mi NW 19.6 mph 26.5 mph N/A   Overcast
10:35 PM 18.9 °F 2.5 °F 9.1 °F 66% 30.04 in 10.0 mi NW 20.7 mph 26.5 mph N/A   Mostly Cloudy
10:55 PM 19.0 °F 3.2 °F 9.1 °F 65% 30.03 in 10.0 mi NW 19.6 mph 25.3 mph N/A   Mostly Cloudy
11:15 PM 18.5 °F 2.9 °F 8.1 °F 64% 30.01 in 10.0 mi NNW 18.4 mph 27.6 mph N/A   Scattered Clouds
11:35 PM 18.0 °F 2.6 °F 8.6 °F 67% 30.06 in 10.0 mi NW 17.3 mph - N/A   Scattered Clouds
11:55 PM 18.5 °F 3.3 °F 9.9 °F 69% 30.08 in 10.0 mi WNW 17.3 mph 23.0 mph N/A   Mostly Cloudy